sensor_id;sensor_type;location;lat;lon;timestamp;pressure;altitude;pressure_sealevel;temperature;humidity
31337;BME280;22846;42.654;23.314;2023-03-01T00:01:29;94941.13;;;23.89;54.76
31337;BME280;22846;42.654;23.314;2023-03-01T00:03:55;94939.59;;;23.88;54.57
31337;BME280;22846;42.654;23.314;2023-03-01T00:06:21;94933.44;;;23.84;54.86
31337;BME280;22846;42.654;23.314;2023-03-01T00:08:47;94932.16;;;23.88;54.67
31337;BME280;22846;42.654;23.314;2023-03-01T00:13:41;94936.84;;;23.88;54.76
31337;BME280;22846;42.654;23.314;2023-03-01T00:16:09;94939.22;;;23.86;54.52
31337;BME280;22846;42.654;23.314;2023-03-01T00:18:35;94936.50;;;23.86;54.41
31337;BME280;22846;42.654;23.314;2023-03-01T00:21:00;94919.78;;;23.84;54.44
31337;BME280;22846;42.654;23.314;2023-03-01T00:23:26;94921.31;;;23.85;55.00
31337;BME280;22846;42.654;23.314;2023-03-01T00:25:52;94919.78;;;23.84;54.86
31337;BME280;22846;42.654;23.314;2023-03-01T00:28:18;94908.09;;;23.83;54.40
31337;BME280;22846;42.654;23.314;2023-03-01T00:30:43;94906.56;;;23.82;54.51
31337;BME280;22846;42.654;23.314;2023-03-01T00:33:08;94895.66;;;23.82;54.40
31337;BME280;22846;42.654;23.314;2023-03-01T00:35:35;94904.59;;;23.83;54.55
31337;BME280;22846;42.654;23.314;2023-03-01T00:38:00;94901.53;;;23.81;54.79
31337;BME280;22846;42.654;23.314;2023-03-01T00:40:27;94890.63;;;23.81;54.32
31337;BME280;22846;42.654;23.314;2023-03-01T00:42:54;94887.91;;;23.81;54.63
31337;BME280;22846;42.654;23.314;2023-03-01T00:45:19;94882.56;;;23.74;54.48
31337;BME280;22846;42.654;23.314;2023-03-01T00:47:44;94890.28;;;23.79;54.61
31337;BME280;22846;42.654;23.314;2023-03-01T00:50:11;94886.38;;;23.80;54.85
31337;BME280;22846;42.654;23.314;2023-03-01T00:52:36;94868.06;;;23.61;54.43
31337;BME280;22846;42.654;23.314;2023-03-01T00:55:03;94886.78;;;23.78;54.76
31337;BME280;22846;42.654;23.314;2023-03-01T00:57:29;94879.78;;;23.77;54.69
31337;BME280;22846;42.654;23.314;2023-03-01T00:59:54;94880.25;;;23.72;54.33
31337;BME280;22846;42.654;23.314;2023-03-01T01:02:20;94881.03;;;23.73;54.46
31337;BME280;22846;42.654;23.314;2023-03-01T01:04:46;94890.38;;;23.75;54.71
31337;BME280;22846;42.654;23.314;2023-03-01T01:07:12;94882.19;;;23.75;54.39
31337;BME280;22846;42.654;23.314;2023-03-01T01:09:37;94876.78;;;23.72;54.59
31337;BME280;22846;42.654;23.314;2023-03-01T01:12:03;94888.03;;;23.74;54.66
31337;BME280;22846;42.654;23.314;2023-03-01T01:14:29;94864.56;;;23.60;54.53
31337;BME280;22846;42.654;23.314;2023-03-01T01:16:55;94878.28;;;23.73;54.66
31337;BME280;22846;42.654;23.314;2023-03-01T01:19:20;94867.91;;;23.68;54.45
31337;BME280;22846;42.654;23.314;2023-03-01T01:21:46;94882.25;;;23.72;54.54
31337;BME280;22846;42.654;23.314;2023-03-01T01:24:14;94867.91;;;23.68;54.49
31337;BME280;22846;42.654;23.314;2023-03-01T01:26:40;94863.47;;;23.58;54.38
31337;BME280;22846;42.654;23.314;2023-03-01T01:29:06;94880.69;;;23.71;54.57
31337;BME280;22846;42.654;23.314;2023-03-01T01:31:34;94876.44;;;23.70;54.61
31337;BME280;22846;42.654;23.314;2023-03-01T01:34:01;94886.56;;;23.69;54.66
31337;BME280;22846;42.654;23.314;2023-03-01T01:36:27;94870.09;;;23.57;54.23
31337;BME280;22846;42.654;23.314;2023-03-01T01:38:52;94896.72;;;23.69;54.24
31337;BME280;22846;42.654;23.314;2023-03-01T01:41:19;94894.44;;;23.67;54.27
31337;BME280;22846;42.654;23.314;2023-03-01T01:43:48;94893.66;;;23.67;54.17
31337;BME280;22846;42.654;23.314;2023-03-01T01:46:33;94902.63;;;23.67;54.53
31337;BME280;22846;42.654;23.314;2023-03-01T01:49:04;94906.09;;;23.68;54.18
31337;BME280;22846;42.654;23.314;2023-03-01T01:51:39;94898.75;;;23.65;54.22
31337;BME280;22846;42.654;23.314;2023-03-01T01:54:10;94904.47;;;23.70;54.38
31337;BME280;22846;42.654;23.314;2023-03-01T01:56:40;94895.63;;;23.66;54.12
31337;BME280;22846;42.654;23.314;2023-03-01T01:59:08;94886.38;;;23.60;54.57
31337;BME280;22846;42.654;23.314;2023-03-01T02:01:34;94888.28;;;23.63;54.23
31337;BME280;22846;42.654;23.314;2023-03-01T02:04:00;94891.00;;;23.63;54.04
31337;BME280;22846;42.654;23.314;2023-03-01T02:06:39;94887.53;;;23.63;54.24
31337;BME280;22846;42.654;23.314;2023-03-01T02:09:13;94882.06;;;23.63;54.14
31337;BME280;22846;42.654;23.314;2023-03-01T02:11:40;94876.59;;;23.63;54.12
31337;BME280;22846;42.654;23.314;2023-03-01T02:14:06;94880.53;;;23.62;54.51
31337;BME280;22846;42.654;23.314;2023-03-01T02:16:32;94880.53;;;23.62;54.21
31337;BME280;22846;42.654;23.314;2023-03-01T02:18:58;94880.53;;;23.62;54.42
31337;BME280;22846;42.654;23.314;2023-03-01T02:24:04;94876.66;;;23.59;54.60
31337;BME280;22846;42.654;23.314;2023-03-01T02:26:42;94882.91;;;23.60;54.43
31337;BME280;22846;42.654;23.314;2023-03-01T02:29:10;94872.44;;;23.58;54.24
31337;BME280;22846;42.654;23.314;2023-03-01T02:31:35;94878.22;;;23.60;54.00
31337;BME280;22846;42.654;23.314;2023-03-01T02:34:13;94886.06;;;23.58;54.52
31337;BME280;22846;42.654;23.314;2023-03-01T02:36:44;94896.19;;;23.58;54.02
31337;BME280;22846;42.654;23.314;2023-03-01T02:39:15;94896.97;;;23.58;54.28
31337;BME280;22846;42.654;23.314;2023-03-01T02:41:46;94890.75;;;23.58;53.87
31337;BME280;22846;42.654;23.314;2023-03-01T02:44:12;94894.66;;;23.57;53.90
31337;BME280;22846;42.654;23.314;2023-03-01T02:46:49;94887.75;;;23.52;54.12
31337;BME280;22846;42.654;23.314;2023-03-01T02:49:29;94889.22;;;23.57;54.41
31337;BME280;22846;42.654;23.314;2023-03-01T02:52:07;94887.66;;;23.56;54.06
31337;BME280;22846;42.654;23.314;2023-03-01T02:54:46;94884.94;;;23.56;54.11
31337;BME280;22846;42.654;23.314;2023-03-01T02:57:13;94874.53;;;23.51;54.11
31337;BME280;22846;42.654;23.314;2023-03-01T02:59:40;94883.09;;;23.53;53.87
31337;BME280;22846;42.654;23.314;2023-03-01T03:02:18;94892.81;;;23.54;54.29
31337;BME280;22846;42.654;23.314;2023-03-01T03:04:45;94883.09;;;23.53;53.92
31337;BME280;22846;42.654;23.314;2023-03-01T03:07:11;94888.88;;;23.55;54.44
31337;BME280;22846;42.654;23.314;2023-03-01T03:09:36;94876.09;;;23.52;53.99
31337;BME280;22846;42.654;23.314;2023-03-01T03:12:02;94888.53;;;23.53;54.36
31337;BME280;22846;42.654;23.314;2023-03-01T03:14:27;94871.63;;;23.42;54.07
31337;BME280;22846;42.654;23.314;2023-03-01T03:16:53;94887.75;;;23.52;54.31
31337;BME280;22846;42.654;23.314;2023-03-01T03:19:18;94893.56;;;23.54;54.10
31337;BME280;22846;42.654;23.314;2023-03-01T03:21:44;94893.22;;;23.52;54.24
31337;BME280;22846;42.654;23.314;2023-03-01T03:24:10;94887.00;;;23.52;53.89
31337;BME280;22846;42.654;23.314;2023-03-01T03:26:36;94889.72;;;23.52;54.04
31337;BME280;22846;42.654;23.314;2023-03-01T03:29:02;94889.38;;;23.50;54.01
31337;BME280;22846;42.654;23.314;2023-03-01T03:31:27;94887.75;;;23.52;54.01
31337;BME280;22846;42.654;23.314;2023-03-01T03:33:53;94890.16;;;23.50;54.25
31337;BME280;22846;42.654;23.314;2023-03-01T03:36:20;94892.44;;;23.52;54.13
31337;BME280;22846;42.654;23.314;2023-03-01T03:38:46;94883.25;;;23.46;53.80
31337;BME280;22846;42.654;23.314;2023-03-01T03:41:12;94892.88;;;23.50;53.88
31337;BME280;22846;42.654;23.314;2023-03-01T03:43:39;94892.09;;;23.50;53.94
31337;BME280;22846;42.654;23.314;2023-03-01T03:46:05;94874.09;;;23.36;54.18
31337;BME280;22846;42.654;23.314;2023-03-01T03:48:35;94890.22;;;23.47;54.10
31337;BME280;22846;42.654;23.314;2023-03-01T03:51:01;94900.28;;;23.50;53.95
31337;BME280;22846;42.654;23.314;2023-03-01T03:53:28;94894.16;;;23.46;54.08
31337;BME280;22846;42.654;23.314;2023-03-01T03:55:54;94904.19;;;23.49;53.84
31337;BME280;22846;42.654;23.314;2023-03-01T03:58:22;94902.66;;;23.48;53.81
31337;BME280;22846;42.654;23.314;2023-03-01T04:00:51;94897.22;;;23.48;53.95
31337;BME280;22846;42.654;23.314;2023-03-01T04:03:18;94897.22;;;23.48;53.81
31337;BME280;22846;42.654;23.314;2023-03-01T04:05:44;94892.69;;;23.41;53.93
31337;BME280;22846;42.654;23.314;2023-03-01T04:08:10;94898.19;;;23.57;53.95
31337;BME280;22846;42.654;23.314;2023-03-01T04:10:38;94898.94;;;23.74;53.13
31337;BME280;22846;42.654;23.314;2023-03-01T04:13:04;94895.38;;;23.92;53.14
31337;BME280;22846;42.654;23.314;2023-03-01T04:15:30;94891.78;;;24.11;52.48
31337;BME280;22846;42.654;23.314;2023-03-01T04:17:58;94896.38;;;24.30;52.07
31337;BME280;22846;42.654;23.314;2023-03-01T04:20:29;94900.28;;;24.45;51.91
31337;BME280;22846;42.654;23.314;2023-03-01T04:23:02;94901.78;;;24.62;51.64
31337;BME280;22846;42.654;23.314;2023-03-01T04:25:45;94895.59;;;24.74;51.05
31337;BME280;22846;42.654;23.314;2023-03-01T04:28:11;94901.53;;;24.85;50.56
31337;BME280;22846;42.654;23.314;2023-03-01T04:30:37;94903.19;;;24.95;50.83
31337;BME280;22846;42.654;23.314;2023-03-01T04:33:08;94903.31;;;25.04;50.70
31337;BME280;22846;42.654;23.314;2023-03-01T04:35:35;94893.75;;;25.12;50.06
31337;BME280;22846;42.654;23.314;2023-03-01T04:38:01;94892.78;;;25.18;50.31
31337;BME280;22846;42.654;23.314;2023-03-01T04:40:26;94884.13;;;25.20;49.80
31337;BME280;22846;42.654;23.314;2023-03-01T04:42:52;94895.53;;;25.31;49.67
31337;BME280;22846;42.654;23.314;2023-03-01T04:45:17;94899.22;;;25.37;49.64
31337;BME280;22846;42.654;23.314;2023-03-01T04:47:43;94901.00;;;25.43;49.57
31337;BME280;22846;42.654;23.314;2023-03-01T04:50:10;94888.75;;;25.48;49.73
31337;BME280;22846;42.654;23.314;2023-03-01T04:52:37;94890.16;;;25.52;49.36
31337;BME280;22846;42.654;23.314;2023-03-01T04:55:03;94886.13;;;25.57;49.16
31337;BME280;22846;42.654;23.314;2023-03-01T04:57:29;94889.53;;;25.61;49.34
31337;BME280;22846;42.654;23.314;2023-03-01T04:59:54;94887.09;;;25.62;49.20
31337;BME280;22846;42.654;23.314;2023-03-01T05:02:20;94883.81;;;25.67;49.25
31337;BME280;22846;42.654;23.314;2023-03-01T05:04:45;94885.78;;;25.67;49.25
31337;BME280;22846;42.654;23.314;2023-03-01T05:07:11;94889.63;;;25.69;49.28
31337;BME280;22846;42.654;23.314;2023-03-01T05:09:38;94885.03;;;25.66;49.24
31337;BME280;22846;42.654;23.314;2023-03-01T05:12:04;94886.22;;;25.65;49.02
31337;BME280;22846;42.654;23.314;2023-03-01T05:14:30;94889.06;;;25.62;48.99
31337;BME280;22846;42.654;23.314;2023-03-01T05:16:55;94893.78;;;25.62;49.00
31337;BME280;22846;42.654;23.314;2023-03-01T05:19:29;94885.66;;;25.58;49.35
31337;BME280;22846;42.654;23.314;2023-03-01T05:21:56;94896.19;;;25.60;49.48
31337;BME280;22846;42.654;23.314;2023-03-01T05:24:33;94900.88;;;25.59;49.43
31337;BME280;22846;42.654;23.314;2023-03-01T05:27:00;94891.16;;;25.58;49.32
31337;BME280;22846;42.654;23.314;2023-03-01T05:29:27;94893.13;;;25.58;49.50
31337;BME280;22846;42.654;23.314;2023-03-01T05:31:55;94895.13;;;25.57;49.54
31337;BME280;22846;42.654;23.314;2023-03-01T05:34:29;94886.69;;;25.52;49.39
31337;BME280;22846;42.654;23.314;2023-03-01T05:36:55;94888.09;;;25.56;49.25
31337;BME280;22846;42.654;23.314;2023-03-01T05:39:22;94885.38;;;25.56;49.51
31337;BME280;22846;42.654;23.314;2023-03-01T05:41:52;94895.53;;;25.56;49.27
31337;BME280;22846;42.654;23.314;2023-03-01T05:44:17;94888.97;;;25.53;48.53
31337;BME280;22846;42.654;23.314;2023-03-01T05:46:42;94876.59;;;25.36;48.68
31337;BME280;22846;42.654;23.314;2023-03-01T05:49:08;94881.31;;;25.36;49.20
31337;BME280;22846;42.654;23.314;2023-03-01T05:51:34;94890.81;;;25.31;50.55
31337;BME280;22846;42.654;23.314;2023-03-01T05:53:59;94900.66;;;25.29;51.02
31337;BME280;22846;42.654;23.314;2023-03-01T05:56:25;94903.09;;;25.39;51.31
31337;BME280;22846;42.654;23.314;2023-03-01T05:58:50;94910.41;;;25.55;51.76
31337;BME280;22846;42.654;23.314;2023-03-01T06:01:16;94908.34;;;25.71;51.69
31337;BME280;22846;42.654;23.314;2023-03-01T06:03:41;94913.97;;;25.80;51.06
31337;BME280;22846;42.654;23.314;2023-03-01T06:06:07;94924.22;;;25.88;51.47
31337;BME280;22846;42.654;23.314;2023-03-01T06:08:32;94932.66;;;25.94;51.43
31337;BME280;22846;42.654;23.314;2023-03-01T06:10:58;94923.25;;;25.95;51.29
31337;BME280;22846;42.654;23.314;2023-03-01T06:13:24;94926.56;;;25.90;51.42
31337;BME280;22846;42.654;23.314;2023-03-01T06:15:49;94929.50;;;25.95;51.03
31337;BME280;22846;42.654;23.314;2023-03-01T06:18:15;94926.78;;;25.95;49.54
31337;BME280;22846;42.654;23.314;2023-03-01T06:20:40;94929.28;;;25.90;50.17
31337;BME280;22846;42.654;23.314;2023-03-01T06:23:06;94929.28;;;25.90;49.76
31337;BME280;22846;42.654;23.314;2023-03-01T06:25:31;94922.59;;;25.91;50.07
31337;BME280;22846;42.654;23.314;2023-03-01T06:27:57;94925.47;;;25.87;48.97
31337;BME280;22846;42.654;23.314;2023-03-01T06:30:24;94935.97;;;25.89;49.22
31337;BME280;22846;42.654;23.314;2023-03-01T06:32:50;94940.34;;;25.86;49.02
31337;BME280;22846;42.654;23.314;2023-03-01T06:35:17;94940.34;;;25.86;48.95
31337;BME280;22846;42.654;23.314;2023-03-01T06:37:43;94938.38;;;25.87;48.91
31337;BME280;22846;42.654;23.314;2023-03-01T06:40:10;94939.91;;;25.88;49.23
31337;BME280;22846;42.654;23.314;2023-03-01T06:42:38;94936.41;;;25.87;48.96
31337;BME280;22846;42.654;23.314;2023-03-01T06:45:05;94936.28;;;25.91;49.03
31337;BME280;22846;42.654;23.314;2023-03-01T06:47:31;94937.50;;;25.90;48.80
31337;BME280;22846;42.654;23.314;2023-03-01T06:49:58;94942.09;;;25.93;48.25
31337;BME280;22846;42.654;23.314;2023-03-01T06:52:24;94943.31;;;25.92;47.97
31337;BME280;22846;42.654;23.314;2023-03-01T06:54:50;94937.06;;;25.91;48.23
31337;BME280;22846;42.654;23.314;2023-03-01T06:57:15;94930.94;;;25.87;47.74
31337;BME280;22846;42.654;23.314;2023-03-01T06:59:41;94926.31;;;25.84;47.91
31337;BME280;22846;42.654;23.314;2023-03-01T07:02:08;94933.56;;;25.78;47.68
31337;BME280;22846;42.654;23.314;2023-03-01T07:04:34;94943.28;;;25.79;47.75
31337;BME280;22846;42.654;23.314;2023-03-01T07:07:00;94934.44;;;25.75;48.02
31337;BME280;22846;42.654;23.314;2023-03-01T07:09:26;94945.47;;;25.72;47.49
31337;BME280;22846;42.654;23.314;2023-03-01T07:11:51;94940.75;;;25.72;48.01
31337;BME280;22846;42.654;23.314;2023-03-01T07:14:17;94932.53;;;25.72;47.83
31337;BME280;22846;42.654;23.314;2023-03-01T07:16:42;94926.09;;;25.66;48.06
31337;BME280;22846;42.654;23.314;2023-03-01T07:19:07;94924.31;;;25.60;48.05
31337;BME280;22846;42.654;23.314;2023-03-01T07:21:33;94934.19;;;25.70;47.89
31337;BME280;22846;42.654;23.314;2023-03-01T07:23:58;94926.75;;;25.70;48.02
31337;BME280;22846;42.654;23.314;2023-03-01T07:26:24;94929.56;;;25.67;47.77
31337;BME280;22846;42.654;23.314;2023-03-01T07:28:49;94916.78;;;25.64;47.76
31337;BME280;22846;42.654;23.314;2023-03-01T07:31:14;94926.53;;;25.65;47.88
31337;BME280;22846;42.654;23.314;2023-03-01T07:33:40;94926.84;;;25.67;48.10
31337;BME280;22846;42.654;23.314;2023-03-01T07:36:06;94919.41;;;25.67;47.96
31337;BME280;22846;42.654;23.314;2023-03-01T07:38:32;94919.41;;;25.67;47.93
31337;BME280;22846;42.654;23.314;2023-03-01T07:40:59;94918.75;;;25.63;48.17
31337;BME280;22846;42.654;23.314;2023-03-01T07:43:26;94928.81;;;25.66;47.89
31337;BME280;22846;42.654;23.314;2023-03-01T07:45:51;94919.41;;;25.67;47.78
31337;BME280;22846;42.654;23.314;2023-03-01T07:48:17;94914.47;;;25.62;47.95
31337;BME280;22846;42.654;23.314;2023-03-01T07:50:42;94919.41;;;25.67;47.91
31337;BME280;22846;42.654;23.314;2023-03-01T07:53:09;94906.59;;;25.64;47.88
31337;BME280;22846;42.654;23.314;2023-03-01T07:55:35;94897.97;;;25.66;47.91
31337;BME280;22846;42.654;23.314;2023-03-01T07:58:00;94901.78;;;25.68;47.64
31337;BME280;22846;42.654;23.314;2023-03-01T08:00:26;94892.03;;;25.67;47.46
31337;BME280;22846;42.654;23.314;2023-03-01T08:02:51;94897.72;;;25.61;42.28
31337;BME280;22846;42.654;23.314;2023-03-01T08:05:17;94907.38;;;25.53;45.48
31337;BME280;22846;42.654;23.314;2023-03-01T08:07:42;94910.75;;;25.57;46.29
31337;BME280;22846;42.654;23.314;2023-03-01T08:10:08;94902.09;;;25.58;46.30
31337;BME280;22846;42.654;23.314;2023-03-01T08:12:34;94904.41;;;25.60;46.37
31337;BME280;22846;42.654;23.314;2023-03-01T08:14:59;94907.03;;;25.63;46.62
31337;BME280;22846;42.654;23.314;2023-03-01T08:17:24;94913.16;;;25.67;46.84
31337;BME280;22846;42.654;23.314;2023-03-01T08:19:50;94907.59;;;25.70;46.46
31337;BME280;22846;42.654;23.314;2023-03-01T08:22:15;94913.81;;;25.71;46.77
31337;BME280;22846;42.654;23.314;2023-03-01T08:24:41;94903.63;;;25.71;46.78
31337;BME280;22846;42.654;23.314;2023-03-01T08:27:06;94900.13;;;25.71;46.27
31337;BME280;22846;42.654;23.314;2023-03-01T08:29:32;94901.66;;;25.72;46.79
31337;BME280;22846;42.654;23.314;2023-03-01T08:31:58;94905.84;;;25.76;46.73
31337;BME280;22846;42.654;23.314;2023-03-01T08:34:24;94899.59;;;25.76;46.38
31337;BME280;22846;42.654;23.314;2023-03-01T08:36:49;94902.22;;;25.79;46.54
31337;BME280;22846;42.654;23.314;2023-03-01T08:39:18;94904.22;;;25.79;46.29
31337;BME280;22846;42.654;23.314;2023-03-01T08:41:45;94901.03;;;25.80;46.42
31337;BME280;22846;42.654;23.314;2023-03-01T08:44:12;94897.28;;;25.74;46.60
31337;BME280;22846;42.654;23.314;2023-03-01T08:46:40;94903.50;;;25.75;46.49
31337;BME280;22846;42.654;23.314;2023-03-01T08:49:11;94905.06;;;25.76;46.34
31337;BME280;22846;42.654;23.314;2023-03-01T08:51:38;94903.44;;;25.78;46.41
31337;BME280;22846;42.654;23.314;2023-03-01T08:54:05;94903.44;;;25.78;46.45
31337;BME280;22846;42.654;23.314;2023-03-01T08:56:32;94904.22;;;25.79;46.31
31337;BME280;22846;42.654;23.314;2023-03-01T08:58:57;94913.50;;;25.81;46.09
31337;BME280;22846;42.654;23.314;2023-03-01T09:01:23;94903.44;;;25.78;46.34
31337;BME280;22846;42.654;23.314;2023-03-01T09:03:48;94906.19;;;25.78;46.30
31337;BME280;22846;42.654;23.314;2023-03-01T09:06:14;94910.34;;;25.83;46.50
31337;BME280;22846;42.654;23.314;2023-03-01T09:08:42;94909.56;;;25.82;46.36
31337;BME280;22846;42.654;23.314;2023-03-01T09:11:10;94913.09;;;25.83;46.22
31337;BME280;22846;42.654;23.314;2023-03-01T09:13:36;94913.84;;;25.83;45.93
31337;BME280;22846;42.654;23.314;2023-03-01T09:16:04;94911.84;;;25.84;46.34
31337;BME280;22846;42.654;23.314;2023-03-01T09:18:30;94914.16;;;25.85;45.91
31337;BME280;22846;42.654;23.314;2023-03-01T09:21:22;94907.16;;;25.84;46.12
31337;BME280;22846;42.654;23.314;2023-03-01T09:23:49;94904.75;;;25.86;46.22
31337;BME280;22846;42.654;23.314;2023-03-01T09:26:20;94903.63;;;25.84;45.89
31337;BME280;22846;42.654;23.314;2023-03-01T09:28:48;94899.28;;;25.86;45.90
31337;BME280;22846;42.654;23.314;2023-03-01T09:31:15;94906.72;;;25.86;46.12
31337;BME280;22846;42.654;23.314;2023-03-01T09:33:42;94903.22;;;25.85;46.02
31337;BME280;22846;42.654;23.314;2023-03-01T09:36:11;94900.16;;;25.83;45.64
31337;BME280;22846;42.654;23.314;2023-03-01T09:38:37;94902.88;;;25.83;45.69
31337;BME280;22846;42.654;23.314;2023-03-01T09:41:10;94898.16;;;25.84;46.05
31337;BME280;22846;42.654;23.314;2023-03-01T09:43:55;94881.59;;;25.75;46.06
31337;BME280;22846;42.654;23.314;2023-03-01T09:46:25;94887.34;;;25.80;45.95
31337;BME280;22846;42.654;23.314;2023-03-01T09:48:56;94895.00;;;25.85;45.84
31337;BME280;22846;42.654;23.314;2023-03-01T09:51:41;94884.38;;;25.87;46.33
31337;BME280;22846;42.654;23.314;2023-03-01T09:54:08;94885.91;;;25.88;46.11
31337;BME280;22846;42.654;23.314;2023-03-01T09:56:46;94875.50;;;25.83;46.21
31337;BME280;22846;42.654;23.314;2023-03-01T10:02:32;94867.28;;;25.83;45.82
31337;BME280;22846;42.654;23.314;2023-03-01T10:10:47;94860.03;;;25.89;45.66
31337;BME280;22846;42.654;23.314;2023-03-01T10:13:15;94865.22;;;25.87;45.60
31337;BME280;22846;42.654;23.314;2023-03-01T10:15:52;94867.19;;;25.87;45.85
31337;BME280;22846;42.654;23.314;2023-03-01T10:18:31;94859.41;;;25.85;45.95
31337;BME280;22846;42.654;23.314;2023-03-01T10:21:00;94866.31;;;25.90;45.59
31337;BME280;22846;42.654;23.314;2023-03-01T10:23:29;94855.13;;;25.84;45.48
31337;BME280;22846;42.654;23.314;2023-03-01T10:28:50;94848.66;;;25.91;45.75
31337;BME280;22846;42.654;23.314;2023-03-01T10:31:23;94855.22;;;25.93;45.40
31337;BME280;22846;42.654;23.314;2023-03-01T10:33:53;94845.81;;;25.94;45.51
31337;BME280;22846;42.654;23.314;2023-03-01T10:36:21;94846.56;;;25.95;45.64
31337;BME280;22846;42.654;23.314;2023-03-01T10:38:54;94839.56;;;25.94;45.57
31337;BME280;22846;42.654;23.314;2023-03-01T10:41:22;94837.25;;;25.92;45.36
31337;BME280;22846;42.654;23.314;2023-03-01T10:43:54;94831.34;;;25.94;45.68
31337;BME280;22846;42.654;23.314;2023-03-01T10:46:32;94836.81;;;25.94;45.77
31337;BME280;22846;42.654;23.314;2023-03-01T10:49:22;94841.75;;;25.99;45.25
31337;BME280;22846;42.654;23.314;2023-03-01T10:51:50;94838.22;;;25.98;45.22
31337;BME280;22846;42.654;23.314;2023-03-01T10:54:20;94833.09;;;26.00;45.24
31337;BME280;22846;42.654;23.314;2023-03-01T10:56:57;94824.66;;;25.95;45.46
31337;BME280;22846;42.654;23.314;2023-03-01T11:04:28;94839.44;;;25.97;45.09
31337;BME280;22846;42.654;23.314;2023-03-01T11:07:03;94847.84;;;26.03;45.42
31337;BME280;22846;42.654;23.314;2023-03-01T11:09:33;94840.97;;;25.98;45.22
31337;BME280;22846;42.654;23.314;2023-03-01T11:12:13;94853.47;;;25.99;44.95
31337;BME280;22846;42.654;23.314;2023-03-01T11:14:47;94841.22;;;25.91;39.30
31337;BME280;22846;42.654;23.314;2023-03-01T11:17:31;94837.19;;;25.83;42.13
31337;BME280;22846;42.654;23.314;2023-03-01T11:22:45;94838.69;;;25.72;43.50
31337;BME280;22846;42.654;23.314;2023-03-01T11:25:14;94821.31;;;25.66;43.90
31337;BME280;22846;42.654;23.314;2023-03-01T11:27:43;94810.44;;;25.62;44.20
31337;BME280;22846;42.654;23.314;2023-03-01T11:33:11;94841.91;;;25.83;44.66
31337;BME280;22846;42.654;23.314;2023-03-01T11:35:44;94842.97;;;25.85;44.50
31337;BME280;22846;42.654;23.314;2023-03-01T11:38:23;94833.22;;;25.84;44.53
31337;BME280;22846;42.654;23.314;2023-03-01T11:40:53;94829.63;;;25.87;44.22
31337;BME280;22846;42.654;23.314;2023-03-01T11:43:42;94827.75;;;25.84;44.23
31337;BME280;22846;42.654;23.314;2023-03-01T11:57:04;94796.09;;;25.83;44.11
31337;BME280;22846;42.654;23.314;2023-03-01T12:08:23;94785.16;;;25.83;44.08
31337;BME280;22846;42.654;23.314;2023-03-01T12:14:54;94791.16;;;25.91;44.18
31337;BME280;22846;42.654;23.314;2023-03-01T12:17:16;94793.44;;;25.92;43.85
31337;BME280;22846;42.654;23.314;2023-03-01T12:38:49;94776.78;;;25.99;44.16
31337;BME280;22846;42.654;23.314;2023-03-01T12:41:42;94767.81;;;25.99;43.87
31337;BME280;22846;42.654;23.314;2023-03-01T12:44:28;94770.09;;;26.00;44.06
31337;BME280;22846;42.654;23.314;2023-03-01T12:49:48;94764.28;;;25.98;44.20
31337;BME280;22846;42.654;23.314;2023-03-01T12:54:55;94764.94;;;26.02;43.89
31337;BME280;22846;42.654;23.314;2023-03-01T12:57:37;94763.72;;;26.03;44.05
31337;BME280;22846;42.654;23.314;2023-03-01T13:00:06;94769.50;;;26.05;44.29
31337;BME280;22846;42.654;23.314;2023-03-01T13:02:54;94768.00;;;26.04;44.37
31337;BME280;22846;42.654;23.314;2023-03-01T13:10:46;94770.41;;;26.02;45.16
31337;BME280;22846;42.654;23.314;2023-03-01T13:13:24;94755.56;;;25.91;44.97
31337;BME280;22846;42.654;23.314;2023-03-01T13:15:51;94779.84;;;26.01;45.06
31337;BME280;22846;42.654;23.314;2023-03-01T13:20:48;94772.63;;;25.95;45.08
31337;BME280;22846;42.654;23.314;2023-03-01T13:33:41;94769.13;;;25.94;45.84
31337;BME280;22846;42.654;23.314;2023-03-01T13:36:08;94770.47;;;25.90;45.45
31337;BME280;22846;42.654;23.314;2023-03-01T13:38:36;94781.91;;;25.97;45.92
31337;BME280;22846;42.654;23.314;2023-03-01T13:41:02;94774.50;;;25.98;45.44
31337;BME280;22846;42.654;23.314;2023-03-01T13:43:34;94764.41;;;25.95;45.82
31337;BME280;22846;42.654;23.314;2023-03-01T13:46:11;94750.31;;;25.84;45.89
31337;BME280;22846;42.654;23.314;2023-03-01T13:48:40;94765.31;;;25.92;46.04
31337;BME280;22846;42.654;23.314;2023-03-01T13:51:10;94776.16;;;25.95;46.01
31337;BME280;22846;42.654;23.314;2023-03-01T13:53:41;94760.59;;;25.92;46.07
31337;BME280;22846;42.654;23.314;2023-03-01T13:56:14;94760.25;;;25.90;45.71
31337;BME280;22846;42.654;23.314;2023-03-01T13:59:02;94758.19;;;25.94;46.21
31337;BME280;22846;42.654;23.314;2023-03-01T14:01:32;94759.72;;;25.95;46.17
31337;BME280;22846;42.654;23.314;2023-03-01T14:03:59;94765.94;;;25.96;46.19
31337;BME280;22846;42.654;23.314;2023-03-01T14:06:30;94756.97;;;25.95;46.11
31337;BME280;22846;42.654;23.314;2023-03-01T14:09:08;94762.44;;;25.95;46.42
31337;BME280;22846;42.654;23.314;2023-03-01T14:21:29;94762.44;;;25.95;46.57
31337;BME280;22846;42.654;23.314;2023-03-01T14:23:56;94756.66;;;25.93;46.44
31337;BME280;22846;42.654;23.314;2023-03-01T14:26:22;94762.00;;;25.97;46.56
31337;BME280;22846;42.654;23.314;2023-03-01T14:28:49;94749.63;;;25.92;46.60
31337;BME280;22846;42.654;23.314;2023-03-01T14:31:44;94754.88;;;25.99;46.95
31337;BME280;22846;42.654;23.314;2023-03-01T14:34:24;94743.91;;;25.99;46.71
31337;BME280;22846;42.654;23.314;2023-03-01T14:36:49;94743.59;;;25.97;46.89
31337;BME280;22846;42.654;23.314;2023-03-01T14:39:22;94757.59;;;25.99;46.70
31337;BME280;22846;42.654;23.314;2023-03-01T14:41:49;94754.88;;;25.99;46.58